createdAt,value
2022-10-22T00:01:03.733Z,17.73
2022-10-22T00:04:06.228Z,15.30
2022-10-22T00:07:08.664Z,15.43
2022-10-22T00:10:11.170Z,12.93
2022-10-22T00:13:13.545Z,14.65
2022-10-22T00:16:15.946Z,16.60
2022-10-22T00:19:18.356Z,16.17
2022-10-22T00:22:20.768Z,14.43
2022-10-22T00:25:23.141Z,11.85
2022-10-22T00:28:25.734Z,16.35
2022-10-22T00:31:28.189Z,13.30
2022-10-22T00:34:30.664Z,13.23
2022-10-22T00:37:32.999Z,13.00
2022-10-22T00:40:36.466Z,14.10
2022-10-22T00:44:32.926Z,15.38
2022-10-22T00:47:41.059Z,17.13
2022-10-22T00:50:49.589Z,14.40
2022-10-22T00:53:56.083Z,15.20
2022-10-22T00:56:58.494Z,15.43
2022-10-22T01:00:01.044Z,14.45
2022-10-22T01:03:03.553Z,14.52
2022-10-22T01:06:06.243Z,16.02
2022-10-22T01:09:18.999Z,13.77
2022-10-22T01:12:27.348Z,16.27
2022-10-22T01:15:36.120Z,16.48
2022-10-22T01:18:49.146Z,12.63
2022-10-22T01:21:59.019Z,15.20
2022-10-22T01:25:25.039Z,14.40
2022-10-22T01:28:45.619Z,14.00
2022-10-22T01:32:05.780Z,13.30
2022-10-22T01:35:11.408Z,15.80
2022-10-22T01:38:17.858Z,12.60
2022-10-22T01:41:20.313Z,13.70
2022-10-22T01:44:31.192Z,15.63
2022-10-22T01:47:46.740Z,16.45
2022-10-22T01:50:53.213Z,18.65
2022-10-22T01:54:18.077Z,15.05
2022-10-22T01:57:42.490Z,16.27
2022-10-22T02:00:50.970Z,13.35
2022-10-22T02:03:59.468Z,15.65
2022-10-22T02:07:04.943Z,15.98
2022-10-22T02:10:09.185Z,13.98
2022-10-22T02:13:25.140Z,15.27
2022-10-22T02:16:32.580Z,14.57
2022-10-22T02:19:42.363Z,12.20
2022-10-22T02:22:44.923Z,13.63
2022-10-22T02:25:49.874Z,12.93
2022-10-22T02:29:08.146Z,14.93
2022-10-22T02:32:13.127Z,12.88
2022-10-22T02:35:20.774Z,14.65
2022-10-22T02:38:24.240Z,13.02
2022-10-22T02:41:26.859Z,14.43
2022-10-22T02:44:30.304Z,13.43
2022-10-22T02:47:33.467Z,12.68
2022-10-22T02:50:36.036Z,14.90
2022-10-22T02:53:38.440Z,15.85
2022-10-22T02:56:41.987Z,12.35
2022-10-22T02:59:45.043Z,13.10
2022-10-22T03:02:47.518Z,13.13
2022-10-22T03:05:52.759Z,14.57
2022-10-22T03:08:55.181Z,13.77
2022-10-22T03:11:57.633Z,14.10
2022-10-22T03:14:59.967Z,14.07
2022-10-22T03:18:02.393Z,13.95
2022-10-22T03:21:14.545Z,14.88
2022-10-22T03:24:22.732Z,14.70
2022-10-22T03:27:25.844Z,14.93
2022-10-22T03:30:29.444Z,13.47
2022-10-22T03:33:32.340Z,13.38
2022-10-22T03:36:34.749Z,13.15
2022-10-22T03:39:37.366Z,15.00
2022-10-22T03:42:40.641Z,13.65
2022-10-22T03:45:42.997Z,14.27
2022-10-22T03:48:45.532Z,15.85
2022-10-22T03:51:47.885Z,17.27
2022-10-22T03:54:50.217Z,14.75
2022-10-22T03:57:52.707Z,18.02
2022-10-22T04:00:55.128Z,16.33
2022-10-22T04:03:58.211Z,17.30
2022-10-22T04:07:00.662Z,13.52
2022-10-22T04:10:03.587Z,16.40
2022-10-22T04:13:05.997Z,18.42
2022-10-22T04:16:19.328Z,15.47
2022-10-22T04:19:23.165Z,14.45
2022-10-22T04:22:26.156Z,17.58
2022-10-22T04:25:28.482Z,15.57
2022-10-22T04:28:31.350Z,16.30
2022-10-22T04:31:34.039Z,16.37
2022-10-22T04:34:36.428Z,17.70
2022-10-22T04:37:39.119Z,15.70
2022-10-22T04:40:41.949Z,15.05
2022-10-22T04:43:45.276Z,18.85
2022-10-22T04:46:47.673Z,13.87
2022-10-22T04:49:49.988Z,16.50
2022-10-22T04:52:52.536Z,15.07
2022-10-22T04:55:55.598Z,17.45
2022-10-22T04:59:06.788Z,15.80
2022-10-22T05:02:09.388Z,14.90
2022-10-22T05:05:11.994Z,16.15
2022-10-22T05:08:14.362Z,17.48
2022-10-22T05:11:19.886Z,18.58
2022-10-22T05:14:24.964Z,19.80
2022-10-22T05:17:28.758Z,19.77
2022-10-22T05:20:31.174Z,16.17
2022-10-22T05:23:33.587Z,18.35
2022-10-22T05:26:35.903Z,16.95
2022-10-22T05:29:38.344Z,20.35
2022-10-22T05:32:40.740Z,18.37
2022-10-22T05:35:46.707Z,17.25
2022-10-22T05:38:49.977Z,18.05
2022-10-22T05:41:53.893Z,17.65
2022-10-22T05:44:56.265Z,20.83
2022-10-22T05:47:58.647Z,18.57
2022-10-22T05:51:06.391Z,18.58
2022-10-22T05:54:10.959Z,18.27
2022-10-22T05:57:13.313Z,16.17
2022-10-22T06:00:17.468Z,14.48
2022-10-22T06:03:20.204Z,20.07
2022-10-22T06:06:35.491Z,14.98
2022-10-22T06:12:48.068Z,15.95
2022-10-22T06:15:52.670Z,15.70
2022-10-22T06:18:56.147Z,18.73
2022-10-22T06:21:59.085Z,16.75
2022-10-22T06:25:01.472Z,16.85
2022-10-22T06:28:04.009Z,17.45
2022-10-22T06:31:07.046Z,20.23
2022-10-22T06:34:13.529Z,19.13
2022-10-22T06:37:16.298Z,25.08
2022-10-22T06:40:19.367Z,17.35
2022-10-22T06:43:21.699Z,15.27
2022-10-22T06:46:25.149Z,14.57
2022-10-22T06:49:27.636Z,16.53
2022-10-22T06:52:30.010Z,19.98
2022-10-22T06:55:32.432Z,20.52
2022-10-22T06:58:35.192Z,18.75
2022-10-22T07:01:38.225Z,15.13
2022-10-22T07:04:40.663Z,20.57
2022-10-22T07:07:43.045Z,16.90
2022-10-22T07:10:45.505Z,17.00
2022-10-22T07:13:48.619Z,16.75
2022-10-22T07:16:50.924Z,15.77
2022-10-22T07:19:53.432Z,14.03
2022-10-22T07:22:55.853Z,17.67
2022-10-22T07:25:59.155Z,14.77
2022-10-22T07:29:02.073Z,13.35
2022-10-22T07:32:04.681Z,11.57
2022-10-22T07:35:07.354Z,13.00
2022-10-22T07:38:09.744Z,9.90
2022-10-22T07:41:12.451Z,11.93
2022-10-22T07:44:14.809Z,11.70
2022-10-22T07:47:17.167Z,11.10
2022-10-22T07:50:19.640Z,12.77
2022-10-22T07:53:22.087Z,12.32
2022-10-22T07:56:24.569Z,14.25
2022-10-22T07:59:27.020Z,11.40
2022-10-22T08:02:29.365Z,12.80
2022-10-22T08:05:31.767Z,14.20
2022-10-22T08:08:34.768Z,12.80
2022-10-22T08:11:38.396Z,13.13
2022-10-22T08:14:40.796Z,13.30
2022-10-22T08:17:43.629Z,12.48
2022-10-22T08:20:46.681Z,12.33
2022-10-22T08:23:49.112Z,13.55
2022-10-22T08:26:52.161Z,11.05
2022-10-22T08:29:54.698Z,10.35
2022-10-22T08:32:57.540Z,11.60
2022-10-22T08:35:59.894Z,12.57
2022-10-22T08:39:03.518Z,12.30
2022-10-22T08:42:27.150Z,12.10
2022-10-22T08:45:52.274Z,10.30
2022-10-22T08:48:57.228Z,9.85
2022-10-22T08:52:00.182Z,12.87
2022-10-22T08:55:04.372Z,13.52
2022-10-22T08:58:30.007Z,18.40
2022-10-22T09:01:38.870Z,11.60
2022-10-22T09:04:47.886Z,12.55
2022-10-22T09:07:50.824Z,12.07
2022-10-22T09:11:07.659Z,11.45
2022-10-22T09:17:38.782Z,11.68
2022-10-22T09:20:49.745Z,11.52
2022-10-22T09:24:15.164Z,13.63
2022-10-22T09:27:20.006Z,12.32
2022-10-22T09:30:23.952Z,11.77
2022-10-22T09:33:28.323Z,11.40
2022-10-22T09:36:30.791Z,11.40
2022-10-22T09:39:41.499Z,12.47
2022-10-22T09:42:45.393Z,13.32
2022-10-22T09:45:50.000Z,16.27
2022-10-22T09:48:55.844Z,11.13
2022-10-22T09:51:59.549Z,12.43
2022-10-22T09:55:02.840Z,13.10
2022-10-22T09:58:05.263Z,16.23
2022-10-22T10:01:07.628Z,14.23
2022-10-22T10:04:16.045Z,15.32
2022-10-22T10:07:21.654Z,12.35
2022-10-22T10:10:47.365Z,19.27
2022-10-22T10:13:54.539Z,19.73
2022-10-22T10:17:01.060Z,13.95
2022-10-22T10:20:26.630Z,18.17
2022-10-22T10:23:49.041Z,13.52
2022-10-22T10:27:06.385Z,16.00
2022-10-22T10:30:21.156Z,13.95
2022-10-22T10:33:49.972Z,14.23
2022-10-22T10:37:19.529Z,15.23
2022-10-22T10:40:40.537Z,18.27
2022-10-22T10:43:45.669Z,15.23
2022-10-22T10:47:16.444Z,18.13
2022-10-22T10:50:26.448Z,20.10
2022-10-22T10:53:59.649Z,18.45
2022-10-22T10:57:20.824Z,14.25
2022-10-22T11:00:23.919Z,15.57
2022-10-22T11:03:35.698Z,17.33
2022-10-22T11:06:40.457Z,17.52
2022-10-22T11:10:13.098Z,15.57
2022-10-22T11:13:31.431Z,17.10
2022-10-22T11:16:42.679Z,16.53
2022-10-22T11:20:05.251Z,21.75
2022-10-22T11:23:19.873Z,20.05
2022-10-22T11:26:35.891Z,17.75
2022-10-22T11:29:42.060Z,22.95
2022-10-22T11:32:50.194Z,24.50
2022-10-22T11:35:53.196Z,19.92
2022-10-22T11:38:55.672Z,21.17
2022-10-22T11:41:59.838Z,16.42
2022-10-22T11:45:08.000Z,20.38
2022-10-22T11:48:10.356Z,22.13
2022-10-22T11:51:35.549Z,44.53
2022-10-22T11:54:42.856Z,29.48
2022-10-22T11:57:48.554Z,26.38
2022-10-22T12:00:51.335Z,37.70
2022-10-22T12:03:59.284Z,46.27
2022-10-22T12:07:02.359Z,30.02
2022-10-22T12:10:06.440Z,22.40
2022-10-22T12:13:14.175Z,19.42
2022-10-22T12:16:23.613Z,18.77
2022-10-22T12:19:51.528Z,18.37
2022-10-22T12:22:55.372Z,19.50
2022-10-22T12:25:58.273Z,23.10
2022-10-22T12:29:03.107Z,21.42
2022-10-22T12:32:05.656Z,23.52
2022-10-22T12:35:15.066Z,22.33
2022-10-22T12:38:22.962Z,22.48
2022-10-22T12:41:37.443Z,21.35
2022-10-22T12:44:40.620Z,21.55
2022-10-22T12:47:50.566Z,20.05
2022-10-22T12:50:55.023Z,21.40
2022-10-22T12:54:02.204Z,20.30
2022-10-22T12:57:04.661Z,21.05
2022-10-22T13:00:21.084Z,22.90
2022-10-22T13:03:32.762Z,24.45
2022-10-22T13:06:35.884Z,27.63
2022-10-22T13:09:40.105Z,23.30
2022-10-22T13:12:50.076Z,34.90
2022-10-22T13:15:52.496Z,31.52
2022-10-22T13:18:54.901Z,37.65
2022-10-22T13:21:57.281Z,40.50
2022-10-22T13:25:22.264Z,43.03
2022-10-22T13:28:27.222Z,52.38
2022-10-22T13:31:37.757Z,45.33
2022-10-22T13:34:40.662Z,55.10
2022-10-22T13:37:43.458Z,49.07
2022-10-22T13:40:46.751Z,32.22
2022-10-22T13:43:49.296Z,25.42
2022-10-22T13:46:51.652Z,51.97
2022-10-22T13:49:58.264Z,35.72
2022-10-22T13:53:00.893Z,23.10
2022-10-22T13:56:03.505Z,26.33
2022-10-22T13:59:05.840Z,47.72
2022-10-22T14:02:11.531Z,45.85
2022-10-22T14:05:14.184Z,44.40
2022-10-22T14:08:19.085Z,29.37
2022-10-22T14:11:21.756Z,132.27
2022-10-22T14:14:24.147Z,187.93
2022-10-22T14:17:27.777Z,124.82
2022-10-22T14:20:32.317Z,112.75
2022-10-22T14:23:36.333Z,86.93
2022-10-22T14:26:38.713Z,56.35
2022-10-22T14:29:41.650Z,58.00
2022-10-22T14:32:44.383Z,46.47
2022-10-22T14:35:49.737Z,51.38
2022-10-22T14:38:52.554Z,42.37
2022-10-22T14:41:54.869Z,40.22
2022-10-22T14:44:57.260Z,40.63
2022-10-22T14:47:59.991Z,52.90
2022-10-22T14:51:02.331Z,37.95
2022-10-22T14:54:04.798Z,31.23
2022-10-22T14:57:08.716Z,40.97
2022-10-22T15:00:18.296Z,45.67
2022-10-22T15:03:20.636Z,66.55
2022-10-22T15:06:23.132Z,50.58
2022-10-22T15:09:25.633Z,47.17
2022-10-22T15:12:28.172Z,35.97
2022-10-22T15:15:33.985Z,47.85
2022-10-22T15:18:41.555Z,45.47
2022-10-22T15:21:44.803Z,38.67
2022-10-22T15:24:48.508Z,43.63
2022-10-22T15:27:52.503Z,42.60
2022-10-22T15:30:58.295Z,39.05
2022-10-22T15:34:01.945Z,51.28
2022-10-22T15:37:06.983Z,51.15
2022-10-22T15:40:10.686Z,75.67
2022-10-22T15:43:14.078Z,66.22
2022-10-22T15:46:18.598Z,62.38
2022-10-22T15:49:21.971Z,117.32
2022-10-22T15:52:24.440Z,131.25
2022-10-22T15:55:26.991Z,112.70
2022-10-22T15:58:29.370Z,97.40
2022-10-22T16:01:34.914Z,102.03
2022-10-22T16:04:38.530Z,111.43
2022-10-22T16:07:41.170Z,145.27
2022-10-22T16:10:48.940Z,125.23
2022-10-22T16:13:57.201Z,130.27
2022-10-22T16:17:01.619Z,89.03
2022-10-22T16:20:04.326Z,92.40
2022-10-22T16:23:07.080Z,124.20
2022-10-22T16:26:09.890Z,92.03
2022-10-22T16:29:12.705Z,87.72
2022-10-22T16:32:16.969Z,84.65
2022-10-22T16:35:20.045Z,88.95
2022-10-22T16:38:22.825Z,138.20
2022-10-22T16:41:26.205Z,159.43
2022-10-22T16:44:29.345Z,147.18
2022-10-22T16:47:31.790Z,110.25
2022-10-22T16:50:34.624Z,103.93
2022-10-22T16:53:38.280Z,97.72
2022-10-22T16:56:41.137Z,151.63
2022-10-22T16:59:43.491Z,182.50
2022-10-22T17:02:51.226Z,264.10
2022-10-22T17:05:53.746Z,336.60
2022-10-22T17:08:56.515Z,158.07
2022-10-22T17:11:59.098Z,112.00
2022-10-22T17:15:03.374Z,103.57
2022-10-22T17:18:06.153Z,93.15
2022-10-22T17:21:10.869Z,142.30
2022-10-22T17:24:14.626Z,110.43
2022-10-22T17:27:17.553Z,102.57
2022-10-22T17:30:24.808Z,96.55
2022-10-22T17:33:31.464Z,89.22
2022-10-22T17:36:35.975Z,77.93
2022-10-22T17:39:38.830Z,122.05
2022-10-22T17:42:42.797Z,143.23
2022-10-22T17:45:46.325Z,119.75
2022-10-22T17:48:54.028Z,111.05
2022-10-22T17:51:56.959Z,93.28
2022-10-22T17:54:59.619Z,85.20
2022-10-22T17:58:02.299Z,100.23
2022-10-22T18:01:05.507Z,102.82
2022-10-22T18:04:08.587Z,107.35
2022-10-22T18:07:12.278Z,102.05
2022-10-22T18:10:16.451Z,93.25
2022-10-22T18:13:20.910Z,86.17
2022-10-22T18:16:23.956Z,84.65
2022-10-22T18:19:26.620Z,82.00
2022-10-22T18:22:29.144Z,85.68
2022-10-22T18:25:31.865Z,72.03
2022-10-22T18:28:34.698Z,73.10
2022-10-22T18:31:37.348Z,71.60
2022-10-22T18:34:40.159Z,71.35
2022-10-22T18:37:43.094Z,69.15
2022-10-22T18:40:46.778Z,62.58
2022-10-22T18:43:54.670Z,67.30
2022-10-22T18:46:57.397Z,61.67
2022-10-22T18:50:00.088Z,56.67
2022-10-22T18:53:02.557Z,48.97
2022-10-22T18:56:07.078Z,58.00
2022-10-22T18:59:21.311Z,60.00
2022-10-22T19:02:24.395Z,65.43
2022-10-22T19:05:27.136Z,63.20
2022-10-22T19:08:30.976Z,62.50
2022-10-22T19:11:34.458Z,58.78
2022-10-22T19:14:37.998Z,56.53
2022-10-22T19:17:41.818Z,58.50
2022-10-22T19:20:47.137Z,54.03
2022-10-22T19:23:50.242Z,51.65
2022-10-22T19:26:52.723Z,54.50
2022-10-22T19:29:55.307Z,70.00
2022-10-22T19:32:58.008Z,63.38
2022-10-22T19:36:05.379Z,58.28
2022-10-22T19:39:08.891Z,53.25
2022-10-22T19:42:11.239Z,48.40
2022-10-22T19:45:13.831Z,41.73
2022-10-22T19:48:16.344Z,45.65
2022-10-22T19:51:24.566Z,53.30
2022-10-22T19:54:28.613Z,55.53
2022-10-22T19:57:32.008Z,55.70
2022-10-22T20:00:35.984Z,53.13
2022-10-22T20:03:39.059Z,51.28
2022-10-22T20:06:42.053Z,53.03
2022-10-22T20:09:45.712Z,53.65
2022-10-22T20:12:48.759Z,54.20
2022-10-22T20:15:53.476Z,46.77
2022-10-22T20:19:00.815Z,46.35
2022-10-22T20:22:03.282Z,44.65
2022-10-22T20:25:06.148Z,44.80
2022-10-22T20:28:09.535Z,43.55
2022-10-22T20:31:14.519Z,37.00
2022-10-22T20:34:17.105Z,39.38
2022-10-22T20:37:19.505Z,37.30
2022-10-22T20:40:22.081Z,39.63
2022-10-22T20:43:25.738Z,34.47
2022-10-22T20:46:31.223Z,41.23
2022-10-22T20:49:33.692Z,35.00
2022-10-22T20:52:36.279Z,37.33
2022-10-22T20:55:38.689Z,36.67
2022-10-22T20:58:47.617Z,32.90
2022-10-22T21:01:52.059Z,33.60
2022-10-22T21:04:54.424Z,37.80
2022-10-22T21:07:58.425Z,33.72
2022-10-22T21:11:00.901Z,32.88
2022-10-22T21:14:04.514Z,33.20
2022-10-22T21:17:08.149Z,37.73
2022-10-22T21:23:17.760Z,39.13
2022-10-22T21:26:20.680Z,36.10
2022-10-22T21:29:23.154Z,36.80
2022-10-22T21:32:29.020Z,37.33
2022-10-22T21:35:32.389Z,40.90
2022-10-22T21:38:34.818Z,42.60
2022-10-22T21:41:37.756Z,34.70
2022-10-22T21:44:40.140Z,32.30
2022-10-22T21:47:43.220Z,28.27
2022-10-22T21:50:45.881Z,33.10
2022-10-22T21:53:48.340Z,30.00
2022-10-22T21:56:50.836Z,31.60
2022-10-22T21:59:53.211Z,27.55
2022-10-22T22:02:56.050Z,30.97
2022-10-22T22:05:59.512Z,36.55
2022-10-22T22:09:02.767Z,35.63
2022-10-22T22:12:05.277Z,36.40
2022-10-22T22:15:08.377Z,31.25
2022-10-22T22:18:11.610Z,35.33
2022-10-22T22:21:17.255Z,30.75
2022-10-22T22:24:19.643Z,36.67
2022-10-22T22:27:22.042Z,30.95
2022-10-22T22:30:25.056Z,35.35
2022-10-22T22:33:27.760Z,37.97
2022-10-22T22:36:34.980Z,31.20
2022-10-22T22:39:37.417Z,32.63
2022-10-22T22:42:39.816Z,32.58
2022-10-22T22:45:42.175Z,41.13
2022-10-22T22:48:48.429Z,34.97
2022-10-22T22:51:51.977Z,40.20
2022-10-22T22:54:54.477Z,35.20
2022-10-22T22:57:57.622Z,34.22
2022-10-22T23:01:16.666Z,34.28
2022-10-22T23:04:23.660Z,34.80
2022-10-22T23:07:26.088Z,35.58
2022-10-22T23:10:28.489Z,48.63
2022-10-22T23:13:31.758Z,43.75
2022-10-22T23:16:37.265Z,40.53
2022-10-22T23:19:39.637Z,38.23
2022-10-22T23:22:42.154Z,38.95
2022-10-22T23:25:44.744Z,36.55
2022-10-22T23:28:47.252Z,34.03
2022-10-22T23:31:50.804Z,51.97
2022-10-22T23:34:53.223Z,48.63
2022-10-22T23:37:55.575Z,52.80
2022-10-22T23:40:58.002Z,45.35
2022-10-22T23:44:02.070Z,43.42
2022-10-22T23:47:04.848Z,44.25
2022-10-22T23:50:07.886Z,31.83
2022-10-22T23:53:10.369Z,29.70
2022-10-22T23:56:15.471Z,28.42
2022-10-22T23:59:17.877Z,35.78
